createdAt,value
2022-11-26T00:01:22.384Z,6.60
2022-11-26T00:03:49.370Z,6.60
2022-11-26T00:06:24.457Z,6.70
2022-11-26T00:08:51.260Z,6.70
2022-11-26T00:11:18.006Z,6.70
2022-11-26T00:13:44.700Z,6.70
2022-11-26T00:16:13.711Z,6.70
2022-11-26T00:18:41.820Z,6.70
2022-11-26T00:21:21.993Z,6.70
2022-11-26T00:23:49.311Z,6.70
2022-11-26T00:26:21.616Z,6.70
2022-11-26T00:28:55.170Z,6.70
2022-11-26T00:31:22.747Z,6.70
2022-11-26T00:33:49.481Z,6.70
2022-11-26T00:36:22.471Z,6.70
2022-11-26T00:38:56.514Z,6.80
2022-11-26T00:41:25.691Z,6.80
2022-11-26T00:43:52.673Z,6.80
2022-11-26T00:46:21.262Z,6.80
2022-11-26T00:48:48.408Z,6.70
2022-11-26T00:51:19.548Z,6.80
2022-11-26T00:53:47.719Z,6.70
2022-11-26T00:56:19.815Z,6.80
2022-11-26T00:58:48.480Z,6.80
2022-11-26T01:01:27.447Z,6.80
2022-11-26T01:03:54.305Z,6.80
2022-11-26T01:06:32.355Z,6.80
2022-11-26T01:08:59.489Z,6.90
2022-11-26T01:11:26.897Z,6.90
2022-11-26T01:13:54.982Z,6.90
2022-11-26T01:16:30.797Z,6.90
2022-11-26T01:18:59.551Z,6.90
2022-11-26T01:21:27.822Z,6.90
2022-11-26T01:23:54.596Z,6.90
2022-11-26T01:26:27.237Z,6.90
2022-11-26T01:28:55.107Z,6.90
2022-11-26T01:31:27.733Z,6.90
2022-11-26T01:33:55.634Z,6.90
2022-11-26T01:36:29.537Z,6.90
2022-11-26T01:38:59.061Z,7.00
2022-11-26T01:41:43.812Z,6.90
2022-11-26T01:44:31.804Z,6.90
2022-11-26T01:46:59.249Z,6.90
2022-11-26T01:49:34.779Z,6.80
2022-11-26T01:52:01.421Z,6.90
2022-11-26T01:54:28.454Z,6.80
2022-11-26T01:56:59.313Z,6.90
2022-11-26T01:59:34.414Z,6.90
2022-11-26T02:02:01.646Z,6.90
2022-11-26T02:04:32.891Z,6.90
2022-11-26T02:06:59.727Z,6.90
2022-11-26T02:09:27.736Z,6.90
2022-11-26T02:11:54.544Z,6.90
2022-11-26T02:14:27.057Z,6.90
2022-11-26T02:17:31.012Z,6.90
2022-11-26T02:20:13.034Z,7.00
2022-11-26T02:23:16.819Z,7.00
2022-11-26T02:26:07.491Z,7.00
2022-11-26T02:28:58.573Z,7.00
2022-11-26T02:31:51.451Z,7.00
2022-11-26T02:34:37.529Z,7.00
2022-11-26T02:37:17.346Z,7.00
2022-11-26T02:39:44.078Z,7.00
2022-11-26T02:42:27.483Z,7.00
2022-11-26T02:44:57.562Z,7.00
2022-11-26T02:47:26.452Z,7.00
2022-11-26T02:49:57.167Z,6.90
2022-11-26T02:52:27.355Z,6.90
2022-11-26T02:54:56.555Z,7.00
2022-11-26T02:57:29.111Z,7.00
2022-11-26T02:59:58.280Z,7.00
2022-11-26T03:02:27.690Z,7.00
2022-11-26T03:04:58.250Z,7.00
2022-11-26T03:07:26.869Z,7.00
2022-11-26T03:09:56.336Z,6.90
2022-11-26T03:12:23.600Z,7.00
2022-11-26T03:14:50.401Z,7.00
2022-11-26T03:17:17.562Z,7.00
2022-11-26T03:19:44.808Z,7.00
2022-11-26T03:22:12.653Z,7.00
2022-11-26T03:24:40.359Z,7.00
2022-11-26T03:27:07.480Z,7.00
2022-11-26T03:29:36.458Z,7.00
2022-11-26T03:32:03.555Z,7.00
2022-11-26T03:34:30.492Z,6.90
2022-11-26T03:36:57.278Z,6.90
2022-11-26T03:39:24.291Z,6.90
2022-11-26T03:41:50.972Z,6.90
2022-11-26T03:44:17.648Z,6.90
2022-11-26T03:46:44.357Z,6.90
2022-11-26T03:49:11.052Z,6.90
2022-11-26T03:51:37.724Z,6.90
2022-11-26T03:54:04.560Z,6.90
2022-11-26T03:56:31.329Z,6.90
2022-11-26T03:58:58.021Z,7.00
2022-11-26T04:01:24.805Z,7.00
2022-11-26T04:03:51.740Z,7.00
2022-11-26T04:06:18.580Z,7.00
2022-11-26T04:08:45.266Z,7.00
2022-11-26T04:11:12.017Z,7.00
2022-11-26T04:13:38.679Z,7.00
2022-11-26T04:16:05.710Z,7.00
2022-11-26T04:18:32.465Z,7.00
2022-11-26T04:20:59.143Z,7.00
2022-11-26T04:23:25.856Z,7.00
2022-11-26T04:25:52.592Z,7.00
2022-11-26T04:28:19.260Z,7.00
2022-11-26T04:30:46.032Z,7.00
2022-11-26T04:33:12.692Z,7.00
2022-11-26T04:35:39.431Z,7.10
2022-11-26T04:38:06.106Z,7.10
2022-11-26T04:40:32.952Z,7.10
2022-11-26T04:42:59.601Z,7.10
2022-11-26T04:45:26.657Z,7.10
2022-11-26T04:47:53.760Z,7.10
2022-11-26T04:50:20.559Z,7.10
2022-11-26T04:52:47.196Z,7.10
2022-11-26T04:55:14.540Z,7.10
2022-11-26T04:57:41.213Z,7.10
2022-11-26T05:00:08.682Z,7.10
2022-11-26T05:02:35.518Z,7.10
2022-11-26T05:05:02.240Z,7.10
2022-11-26T05:07:28.943Z,7.10
2022-11-26T05:09:55.708Z,7.10
2022-11-26T05:12:22.333Z,7.10
2022-11-26T05:14:48.973Z,7.10
2022-11-26T05:17:15.637Z,7.10
2022-11-26T05:19:42.275Z,7.10
2022-11-26T05:22:08.967Z,7.10
2022-11-26T05:24:35.756Z,7.10
2022-11-26T05:27:02.643Z,7.10
2022-11-26T05:29:29.650Z,7.10
2022-11-26T05:31:56.482Z,7.10
2022-11-26T05:34:23.201Z,7.10
2022-11-26T05:36:50.115Z,7.10
2022-11-26T05:39:16.863Z,7.10
2022-11-26T05:41:43.597Z,7.00
2022-11-26T05:44:10.514Z,7.00
2022-11-26T05:46:40.985Z,7.00
2022-11-26T05:49:08.389Z,7.10
2022-11-26T05:51:35.489Z,7.00
2022-11-26T05:54:02.390Z,7.00
2022-11-26T05:56:29.269Z,7.00
2022-11-26T05:58:55.913Z,6.90
2022-11-26T06:01:22.670Z,7.00
2022-11-26T06:03:49.867Z,6.90
2022-11-26T06:06:16.585Z,6.90
2022-11-26T06:08:43.237Z,6.90
2022-11-26T06:11:12.212Z,6.90
2022-11-26T06:13:39.057Z,6.90
2022-11-26T06:16:06.215Z,6.90
2022-11-26T06:18:32.884Z,6.90
2022-11-26T06:21:03.854Z,6.90
2022-11-26T06:23:32.239Z,6.90
2022-11-26T06:25:59.203Z,6.90
2022-11-26T06:28:26.105Z,6.90
2022-11-26T06:30:52.798Z,6.90
2022-11-26T06:33:19.452Z,6.90
2022-11-26T06:35:46.102Z,6.90
2022-11-26T06:38:12.788Z,6.90
2022-11-26T06:40:39.448Z,7.00
2022-11-26T06:43:06.104Z,7.00
2022-11-26T06:45:34.859Z,7.00
2022-11-26T06:48:01.577Z,7.00
2022-11-26T06:50:28.329Z,6.90
2022-11-26T06:52:55.287Z,7.00
2022-11-26T06:55:22.318Z,7.00
2022-11-26T06:57:50.637Z,7.00
2022-11-26T07:00:17.691Z,7.00
2022-11-26T07:02:44.442Z,7.00
2022-11-26T07:05:11.106Z,7.00
2022-11-26T07:07:39.073Z,7.00
2022-11-26T07:10:07.296Z,7.00
2022-11-26T07:12:33.971Z,7.00
2022-11-26T07:15:00.644Z,7.00
2022-11-26T07:17:28.321Z,7.00
2022-11-26T07:19:54.964Z,7.00
2022-11-26T07:22:21.719Z,7.00
2022-11-26T07:24:48.441Z,7.00
2022-11-26T07:27:15.234Z,7.00
2022-11-26T07:29:42.007Z,7.00
2022-11-26T07:32:08.967Z,7.00
2022-11-26T07:34:35.788Z,7.00
2022-11-26T07:37:02.562Z,7.00
2022-11-26T07:39:29.212Z,7.10
2022-11-26T07:41:55.894Z,7.10
2022-11-26T07:44:22.738Z,7.10
2022-11-26T07:46:49.410Z,7.10
2022-11-26T07:49:16.098Z,7.10
2022-11-26T07:51:42.892Z,7.10
2022-11-26T07:54:10.246Z,7.10
2022-11-26T07:56:36.971Z,7.10
2022-11-26T07:59:03.744Z,7.10
2022-11-26T08:01:30.764Z,7.20
2022-11-26T08:03:58.597Z,7.20
2022-11-26T08:06:30.133Z,7.20
2022-11-26T08:08:59.823Z,7.20
2022-11-26T08:11:29.173Z,7.20
2022-11-26T08:13:59.145Z,7.20
2022-11-26T08:16:28.855Z,7.30
2022-11-26T08:18:57.815Z,7.30
2022-11-26T08:21:24.928Z,7.30
2022-11-26T08:23:52.682Z,7.30
2022-11-26T08:26:25.217Z,7.30
2022-11-26T08:28:55.042Z,7.30
2022-11-26T08:31:22.437Z,7.30
2022-11-26T08:33:49.180Z,7.40
2022-11-26T08:36:16.574Z,7.40
2022-11-26T08:38:44.319Z,7.40
2022-11-26T08:41:13.667Z,7.40
2022-11-26T08:44:04.962Z,7.40
2022-11-26T08:46:27.588Z,7.40
2022-11-26T08:48:57.898Z,7.40
2022-11-26T08:51:25.745Z,7.40
2022-11-26T08:53:52.619Z,7.40
2022-11-26T08:56:19.378Z,7.40
2022-11-26T08:58:46.320Z,7.40
2022-11-26T09:01:17.555Z,7.40
2022-11-26T09:03:47.491Z,7.40
2022-11-26T09:06:14.296Z,7.50
2022-11-26T09:08:41.934Z,7.40
2022-11-26T09:11:08.656Z,7.50
2022-11-26T09:13:36.399Z,7.40
2022-11-26T09:16:03.145Z,7.40
2022-11-26T09:18:29.885Z,7.50
2022-11-26T09:21:01.374Z,7.40
2022-11-26T09:23:29.250Z,7.40
2022-11-26T09:25:56.167Z,7.50
2022-11-26T09:28:22.998Z,7.50
2022-11-26T09:30:49.744Z,7.50
2022-11-26T09:33:16.562Z,7.50
2022-11-26T09:35:43.265Z,7.50
2022-11-26T09:38:10.037Z,7.50
2022-11-26T09:41:17.827Z,7.50
2022-11-26T09:44:05.517Z,7.50
2022-11-26T09:46:50.908Z,7.50
2022-11-26T09:49:30.298Z,7.60
2022-11-26T09:51:59.910Z,7.60
2022-11-26T09:54:29.437Z,7.60
2022-11-26T09:57:39.821Z,7.60
2022-11-26T10:00:18.738Z,7.60
2022-11-26T10:02:45.512Z,7.60
2022-11-26T10:05:15.933Z,7.50
2022-11-26T10:08:07.806Z,7.50
2022-11-26T10:10:54.088Z,7.50
2022-11-26T10:13:32.215Z,7.50
2022-11-26T10:16:16.351Z,7.50
2022-11-26T10:18:49.230Z,7.50
2022-11-26T10:21:32.571Z,7.50
2022-11-26T10:24:31.871Z,7.50
2022-11-26T10:27:03.815Z,7.50
2022-11-26T10:29:53.146Z,7.50
2022-11-26T10:32:32.185Z,7.40
2022-11-26T10:34:59.049Z,7.40
2022-11-26T10:37:27.907Z,7.40
2022-11-26T10:40:22.591Z,7.40
2022-11-26T10:43:09.479Z,7.40
2022-11-26T10:45:39.219Z,7.40
2022-11-26T10:48:35.168Z,7.50
2022-11-26T10:51:26.427Z,7.50
2022-11-26T10:54:04.930Z,7.50
2022-11-26T10:56:39.399Z,7.50
2022-11-26T10:59:19.251Z,7.50
2022-11-26T11:01:50.213Z,7.60
2022-11-26T11:04:27.839Z,7.50
2022-11-26T11:06:54.698Z,7.50
2022-11-26T11:09:25.782Z,7.60
2022-11-26T11:12:11.003Z,7.60
2022-11-26T11:14:42.645Z,7.60
2022-11-26T11:17:31.279Z,7.50
2022-11-26T11:20:20.490Z,7.50
2022-11-26T11:22:47.693Z,7.40
2022-11-26T11:25:26.387Z,7.40
2022-11-26T11:28:00.357Z,7.30
2022-11-26T11:30:31.162Z,7.20
2022-11-26T11:33:10.652Z,7.20
2022-11-26T11:35:37.434Z,7.20
2022-11-26T11:38:04.168Z,7.30
2022-11-26T11:40:40.364Z,7.30
2022-11-26T11:43:07.560Z,7.30
2022-11-26T11:45:41.534Z,7.30
2022-11-26T11:48:26.836Z,7.40
2022-11-26T11:51:26.022Z,7.30
2022-11-26T11:54:04.680Z,7.40
2022-11-26T11:56:38.459Z,7.40
2022-11-26T11:59:12.716Z,7.30
2022-11-26T12:02:13.815Z,7.30
2022-11-26T12:04:49.311Z,7.30
2022-11-26T12:07:28.233Z,7.40
2022-11-26T12:10:24.198Z,7.40
2022-11-26T12:12:56.386Z,7.40
2022-11-26T12:15:26.432Z,7.40
2022-11-26T12:18:10.229Z,7.40
2022-11-26T12:20:42.649Z,7.40
2022-11-26T12:23:14.810Z,7.50
2022-11-26T12:25:45.448Z,7.60
2022-11-26T12:28:17.199Z,7.60
2022-11-26T12:31:15.459Z,7.60
2022-11-26T12:33:48.356Z,7.70
2022-11-26T12:36:22.426Z,7.70
2022-11-26T12:38:53.589Z,7.70
2022-11-26T12:41:50.027Z,7.70
2022-11-26T12:44:39.575Z,7.70
2022-11-26T12:47:21.722Z,7.70
2022-11-26T12:50:00.466Z,7.70
2022-11-26T12:52:31.023Z,7.70
2022-11-26T12:55:16.899Z,7.80
2022-11-26T12:57:51.169Z,7.80
2022-11-26T13:00:27.380Z,7.80
2022-11-26T13:02:57.265Z,7.80
2022-11-26T13:05:37.950Z,7.80
2022-11-26T13:08:07.697Z,7.80
2022-11-26T13:10:52.910Z,7.80
2022-11-26T13:13:41.785Z,7.80
2022-11-26T13:16:08.706Z,7.70
2022-11-26T13:18:47.352Z,7.70
2022-11-26T13:21:52.777Z,7.70
2022-11-26T13:25:20.721Z,7.70
2022-11-26T13:27:59.540Z,7.70
2022-11-26T13:31:02.114Z,7.70
2022-11-26T13:33:37.893Z,7.60
2022-11-26T13:36:35.279Z,7.60
2022-11-26T13:39:22.580Z,7.50
2022-11-26T13:41:58.089Z,7.50
2022-11-26T13:45:01.411Z,7.50
2022-11-26T13:47:47.779Z,7.40
2022-11-26T13:50:26.220Z,7.40
2022-11-26T13:53:04.232Z,7.40
2022-11-26T13:55:37.389Z,7.40
2022-11-26T13:58:13.267Z,7.40
2022-11-26T14:00:42.238Z,7.40
2022-11-26T14:03:43.997Z,7.40
2022-11-26T14:06:11.395Z,7.30
2022-11-26T14:08:39.799Z,7.30
2022-11-26T14:11:07.168Z,7.30
2022-11-26T14:13:34.278Z,7.40
2022-11-26T14:16:05.905Z,7.40
2022-11-26T14:19:08.103Z,7.40
2022-11-26T14:21:58.458Z,7.30
2022-11-26T14:24:54.893Z,7.30
2022-11-26T14:27:21.623Z,7.30
2022-11-26T14:29:54.658Z,7.30
2022-11-26T14:32:24.224Z,7.30
2022-11-26T14:34:55.975Z,7.30
2022-11-26T14:37:30.623Z,7.30
2022-11-26T14:39:58.393Z,7.30
2022-11-26T14:42:25.449Z,7.40
2022-11-26T14:45:15.416Z,7.40
2022-11-26T14:47:49.619Z,7.40
2022-11-26T14:50:20.160Z,7.40
2022-11-26T14:52:57.849Z,7.40
2022-11-26T14:55:30.266Z,7.40
2022-11-26T14:58:09.992Z,7.50
2022-11-26T15:00:37.311Z,7.40
2022-11-26T15:03:04.531Z,7.40
2022-11-26T15:05:33.295Z,7.40
2022-11-26T15:08:14.818Z,7.40
2022-11-26T15:10:52.660Z,7.40
2022-11-26T15:13:23.346Z,7.50
2022-11-26T15:15:58.590Z,7.50
2022-11-26T15:18:31.183Z,7.50
2022-11-26T15:20:59.428Z,7.50
2022-11-26T15:23:36.453Z,7.50
2022-11-26T15:26:04.624Z,7.50
2022-11-26T15:28:40.184Z,7.50
2022-11-26T15:31:07.869Z,7.50
2022-11-26T15:33:36.737Z,7.50
2022-11-26T15:36:10.480Z,7.50
2022-11-26T15:39:00.709Z,7.50
2022-11-26T15:41:27.496Z,7.40
2022-11-26T15:43:56.879Z,7.30
2022-11-26T15:46:34.406Z,7.30
2022-11-26T15:49:04.967Z,7.30
2022-11-26T15:51:49.722Z,7.30
2022-11-26T15:55:04.369Z,7.40
2022-11-26T15:57:37.447Z,7.30
2022-11-26T16:00:18.144Z,7.20
2022-11-26T16:02:44.987Z,7.20
2022-11-26T16:05:39.161Z,7.10
2022-11-26T16:08:23.978Z,7.10
2022-11-26T16:11:08.441Z,7.10
2022-11-26T16:13:35.923Z,7.10
2022-11-26T16:16:07.589Z,7.10
2022-11-26T16:18:51.535Z,7.10
2022-11-26T16:21:21.501Z,7.20
2022-11-26T16:24:23.579Z,7.10
2022-11-26T16:26:56.177Z,7.20
2022-11-26T16:29:23.206Z,7.20
2022-11-26T16:31:50.080Z,7.20
2022-11-26T16:34:16.725Z,7.20
2022-11-26T16:36:44.205Z,7.10
2022-11-26T16:39:15.940Z,7.20
2022-11-26T16:41:42.844Z,7.20
2022-11-26T16:44:09.509Z,7.20
2022-11-26T16:46:37.861Z,7.20
2022-11-26T16:49:05.197Z,7.20
2022-11-26T16:51:31.921Z,7.30
2022-11-26T16:53:59.221Z,7.30
2022-11-26T16:56:34.517Z,7.30
2022-11-26T16:59:01.365Z,7.30
2022-11-26T17:01:28.254Z,7.30
2022-11-26T17:03:54.969Z,7.30
2022-11-26T17:06:29.962Z,7.30
2022-11-26T17:08:57.184Z,7.30
2022-11-26T17:11:24.563Z,7.30
2022-11-26T17:13:51.261Z,7.30
2022-11-26T17:16:20.352Z,7.30
2022-11-26T17:18:48.001Z,7.40
2022-11-26T17:21:15.050Z,7.30
2022-11-26T17:23:42.312Z,7.30
2022-11-26T17:26:26.878Z,7.30
2022-11-26T17:28:53.592Z,7.30
2022-11-26T17:31:20.409Z,7.30
2022-11-26T17:33:47.217Z,7.30
2022-11-26T17:36:22.438Z,7.30
2022-11-26T17:38:49.884Z,7.40
2022-11-26T17:41:17.019Z,7.30
2022-11-26T17:43:43.952Z,7.40
2022-11-26T17:46:20.831Z,7.40
2022-11-26T17:48:49.104Z,7.40
2022-11-26T17:51:16.174Z,7.40
2022-11-26T17:53:43.679Z,7.40
2022-11-26T17:56:22.612Z,7.40
2022-11-26T17:58:50.247Z,7.40
2022-11-26T18:01:17.932Z,7.40
2022-11-26T18:03:45.250Z,7.40
2022-11-26T18:06:17.185Z,7.40
2022-11-26T18:08:44.761Z,7.50
2022-11-26T18:11:13.276Z,7.40
2022-11-26T18:13:40.017Z,7.40
2022-11-26T18:16:06.839Z,7.40
2022-11-26T18:18:33.564Z,7.40
2022-11-26T18:21:00.259Z,7.40
2022-11-26T18:23:27.005Z,7.30
2022-11-26T18:25:53.697Z,7.30
2022-11-26T18:28:20.470Z,7.30
2022-11-26T18:30:47.221Z,7.30
2022-11-26T18:33:15.122Z,7.40
2022-11-26T18:35:42.479Z,7.40
2022-11-26T18:38:09.718Z,7.40
2022-11-26T18:40:37.187Z,7.40
2022-11-26T18:43:04.852Z,7.40
2022-11-26T18:45:31.493Z,7.40
2022-11-26T18:47:58.277Z,7.40
2022-11-26T18:50:25.196Z,7.40
2022-11-26T18:52:52.145Z,7.40
2022-11-26T18:55:18.907Z,7.50
2022-11-26T18:57:45.603Z,7.40
2022-11-26T19:00:14.302Z,7.40
2022-11-26T19:02:41.025Z,7.40
2022-11-26T19:05:08.027Z,7.40
2022-11-26T19:07:34.757Z,7.50
2022-11-26T19:10:01.521Z,7.50
2022-11-26T19:12:29.444Z,7.50
2022-11-26T19:14:56.115Z,7.50
2022-11-26T19:17:22.849Z,7.60
2022-11-26T19:19:49.554Z,7.60
2022-11-26T19:22:16.169Z,7.50
2022-11-26T19:24:42.902Z,7.40
2022-11-26T19:27:09.609Z,7.50
2022-11-26T19:29:36.329Z,7.50
2022-11-26T19:32:02.998Z,7.60
2022-11-26T19:34:29.664Z,7.60
2022-11-26T19:36:56.341Z,7.60
2022-11-26T19:39:23.077Z,7.60
2022-11-26T19:41:49.888Z,7.70
2022-11-26T19:44:16.619Z,7.60
2022-11-26T19:46:43.245Z,7.60
2022-11-26T19:49:12.369Z,7.70
2022-11-26T19:51:39.829Z,7.60
2022-11-26T19:54:06.836Z,7.60
2022-11-26T19:56:33.660Z,7.60
2022-11-26T19:59:00.572Z,7.60
2022-11-26T20:01:29.077Z,7.60
2022-11-26T20:03:56.655Z,7.60
2022-11-26T20:06:25.835Z,7.60
2022-11-26T20:08:54.032Z,7.60
2022-11-26T20:11:20.880Z,7.60
2022-11-26T20:13:49.003Z,7.60
2022-11-26T20:16:18.981Z,7.60
2022-11-26T20:18:46.690Z,7.60
2022-11-26T20:21:16.391Z,7.60
2022-11-26T20:23:43.240Z,7.60
2022-11-26T20:26:30.425Z,7.60
2022-11-26T20:29:01.426Z,7.60
2022-11-26T20:31:29.030Z,7.50
2022-11-26T20:33:56.030Z,7.50
2022-11-26T20:36:23.483Z,7.50
2022-11-26T20:38:58.499Z,7.50
2022-11-26T20:41:26.270Z,7.50
2022-11-26T20:43:58.472Z,7.50
2022-11-26T20:46:27.558Z,7.50
2022-11-26T20:48:54.711Z,7.40
2022-11-26T20:51:21.416Z,7.40
2022-11-26T20:53:48.187Z,7.40
2022-11-26T20:56:15.252Z,7.40
2022-11-26T20:58:42.074Z,7.40
2022-11-26T21:01:26.123Z,7.40
2022-11-26T21:03:53.142Z,7.40
2022-11-26T21:06:28.994Z,7.40
2022-11-26T21:08:59.084Z,7.40
2022-11-26T21:11:25.961Z,7.40
2022-11-26T21:13:52.581Z,7.40
2022-11-26T21:16:19.775Z,7.40
2022-11-26T21:18:46.518Z,7.40
2022-11-26T21:21:15.827Z,7.40
2022-11-26T21:23:44.289Z,7.40
2022-11-26T21:26:15.302Z,7.40
2022-11-26T21:28:41.941Z,7.40
2022-11-26T21:31:13.820Z,7.50
2022-11-26T21:33:40.604Z,7.40
2022-11-26T21:36:09.123Z,7.40
2022-11-26T21:38:36.514Z,7.40
2022-11-26T21:41:08.686Z,7.40
2022-11-26T21:43:35.309Z,7.40
2022-11-26T21:46:06.939Z,7.30
2022-11-26T21:48:34.202Z,7.30
2022-11-26T21:51:08.202Z,7.30
2022-11-26T21:53:35.299Z,7.40
2022-11-26T21:56:09.268Z,7.40
2022-11-26T21:58:36.834Z,7.40
2022-11-26T22:01:15.300Z,7.40
2022-11-26T22:03:44.259Z,7.40
2022-11-26T22:06:11.546Z,7.40
2022-11-26T22:08:44.529Z,7.40
2022-11-26T22:11:13.259Z,7.40
2022-11-26T22:13:41.018Z,7.40
2022-11-26T22:16:09.786Z,7.40
2022-11-26T22:18:37.809Z,7.50
2022-11-26T22:21:07.793Z,7.50
2022-11-26T22:23:34.569Z,7.40
2022-11-26T22:26:01.320Z,7.40
2022-11-26T22:28:30.310Z,7.50
2022-11-26T22:30:57.381Z,7.50
2022-11-26T22:33:24.403Z,7.50
2022-11-26T22:35:51.096Z,7.50
2022-11-26T22:38:17.754Z,7.50
2022-11-26T22:40:44.517Z,7.50
2022-11-26T22:43:11.159Z,7.50
2022-11-26T22:45:37.914Z,7.50
2022-11-26T22:48:05.025Z,7.50
2022-11-26T22:50:31.702Z,7.50
2022-11-26T22:52:58.418Z,7.50
2022-11-26T22:55:25.056Z,7.50
2022-11-26T22:57:51.800Z,7.50
2022-11-26T23:00:52.170Z,7.50
2022-11-26T23:03:20.471Z,7.50
2022-11-26T23:05:47.460Z,7.40
2022-11-26T23:08:15.215Z,7.40
2022-11-26T23:10:42.691Z,7.30
2022-11-26T23:13:12.019Z,7.30
2022-11-26T23:15:46.167Z,7.30
2022-11-26T23:18:15.057Z,7.30
2022-11-26T23:20:43.004Z,7.30
2022-11-26T23:23:10.580Z,7.30
2022-11-26T23:25:41.377Z,7.30
2022-11-26T23:28:08.929Z,7.40
2022-11-26T23:30:36.281Z,7.40
2022-11-26T23:33:04.048Z,7.40
2022-11-26T23:35:30.691Z,7.40
2022-11-26T23:37:57.440Z,7.40
2022-11-26T23:40:24.124Z,7.40
2022-11-26T23:42:50.894Z,7.40
2022-11-26T23:45:17.644Z,7.40
2022-11-26T23:47:44.383Z,7.50
2022-11-26T23:50:12.090Z,7.50
2022-11-26T23:52:38.836Z,7.50
2022-11-26T23:55:05.998Z,7.50
2022-11-26T23:57:32.752Z,7.50
2022-11-26T23:59:59.465Z,7.40
